Time;durP1;ratioP1;P1;durP2;ratioP2;P2;SDS_P1;SDS_P2;PMS_P1;PMS_P2;Temp;Humidity;BMP_temperature;BMP_pressure;BME280_temperature;BME280_humidity;BME280_pressure;Samples;Min_cycle;Max_cycle;Signal;HPM_P1;HPM_P2
2023/12/28 00:01:11;;;;;;;13.93;11.07;;;;;;;-0.49;83.69;100471.53;2533834;28;20849;-78
2023/12/28 00:02:25;;;;;;;16.98;11.73;;;;;;;-0.51;83.59;100475.72;2525470;28;20050;-79
2023/12/28 00:03:41;;;;;;;16.63;12.70;;;;;;;-0.52;83.49;100479.09;2533597;28;20303;-79
2023/12/28 00:04:55;;;;;;;15.98;11.73;;;;;;;-0.53;83.84;100479.06;2533548;28;20091;-78
2023/12/28 00:06:09;;;;;;;15.15;11.00;;;;;;;-0.54;83.87;100480.75;2533246;28;20310;-80
2023/12/28 00:07:23;;;;;;;18.15;11.00;;;;;;;-0.54;83.67;100483.31;2534015;28;20091;-80
2023/12/28 00:08:37;;;;;;;18.58;12.73;;;;;;;-0.55;83.70;100483.25;2534035;28;20304;-80
2023/12/28 00:09:51;;;;;;;18.55;12.10;;;;;;;-0.52;84.08;100483.34;2533312;28;20046;-80
2023/12/28 00:11:05;;;;;;;20.20;12.70;;;;;;;-0.50;83.82;100480.00;2533728;28;20681;-77
2023/12/28 00:12:19;;;;;;;16.45;11.23;;;;;;;-0.46;83.99;100481.00;2525658;28;20056;-80
2023/12/28 00:13:33;;;;;;;18.75;11.55;;;;;;;-0.42;84.13;100485.41;2526079;28;20315;-80
2023/12/28 00:14:46;;;;;;;15.15;11.38;;;;;;;-0.42;83.83;100476.84;2537063;28;20044;-80
2023/12/28 00:16:01;;;;;;;15.82;13.02;;;;;;;-0.40;84.04;100483.75;2537767;28;20303;-80
2023/12/28 00:17:14;;;;;;;21.85;13.32;;;;;;;-0.37;84.11;100493.25;2534953;28;20049;-80
2023/12/28 00:18:29;;;;;;;20.13;12.05;;;;;;;-0.37;84.19;100488.13;2522952;28;20300;-81
2023/12/28 00:19:43;;;;;;;25.20;14.02;;;;;;;-0.33;84.04;100487.41;2528037;28;20041;-82
2023/12/28 00:20:58;;;;;;;19.40;13.55;;;;;;;-0.33;83.91;100495.09;2534256;28;20358;-81
2023/12/28 00:22:11;;;;;;;19.27;14.35;;;;;;;-0.31;83.98;100499.47;2525399;28;20933;-81
2023/12/28 00:23:26;;;;;;;22.35;12.95;;;;;;;-0.29;84.11;100497.78;2531690;28;20300;-81
2023/12/28 00:24:39;;;;;;;17.42;12.85;;;;;;;-0.25;84.06;100499.66;2526519;28;20048;-81
2023/12/28 00:25:54;;;;;;;20.67;14.05;;;;;;;-0.23;84.14;100494.59;2533356;28;20318;-81
2023/12/28 00:27:07;;;;;;;18.15;12.70;;;;;;;-0.23;83.73;100509.97;2541077;28;20083;-81
2023/12/28 00:28:22;;;;;;;17.40;12.32;;;;;;;-0.24;83.91;100498.81;2534413;28;20700;-79
2023/12/28 00:29:38;;;;;;;21.77;13.38;;;;;;;-0.24;83.75;100503.06;2529370;28;20060;-81
2023/12/28 00:30:52;;;;;;;18.77;13.60;;;;;;;-0.25;83.86;100503.91;2538915;28;20360;-82
2023/12/28 00:32:06;;;;;;;19.15;13.38;;;;;;;-0.25;83.89;100502.22;2533557;28;20296;-80
2023/12/28 00:33:20;;;;;;;15.27;12.77;;;;;;;-0.24;83.81;100513.34;2542489;28;20310;-81
2023/12/28 00:34:34;;;;;;;17.17;11.75;;;;;;;-0.23;84.18;100507.41;2540245;28;20049;-80
2023/12/28 00:35:49;;;;;;;23.38;13.63;;;;;;;-0.21;84.01;100503.16;2529641;28;20309;-81
2023/12/28 00:37:03;;;;;;;17.38;12.18;;;;;;;-0.20;84.20;100507.50;2523844;28;20053;-81
2023/12/28 00:38:17;;;;;;;16.50;13.07;;;;;;;-0.20;83.87;100499.81;2539419;28;20275;-80
2023/12/28 00:39:31;;;;;;;17.13;12.80;;;;;;;-0.20;83.88;100497.25;2533757;28;20049;-81
2023/12/28 00:40:45;;;;;;;20.00;13.93;;;;;;;-0.18;84.04;100489.56;2533366;28;20314;-80
2023/12/28 00:41:59;;;;;;;18.77;14.35;;;;;;;-0.14;84.01;100496.56;2533168;28;20054;-81
2023/12/28 00:43:13;;;;;;;17.33;11.80;;;;;;;-0.10;84.11;100495.84;2534457;28;20307;-81
2023/12/28 00:44:26;;;;;;;15.27;11.13;;;;;;;-0.08;84.26;100494.19;2534506;28;20058;-80
2023/12/28 00:45:42;;;;;;;16.73;12.27;;;;;;;-0.04;84.02;100491.75;2528411;28;20310;-81
2023/12/28 00:46:56;;;;;;;18.83;13.68;;;;;;;0.06;84.44;100499.75;2535776;28;20487;-79
2023/12/28 00:48:10;;;;;;;21.17;14.95;;;;;;;0.17;84.53;100509.53;2535161;28;20053;-78
2023/12/28 00:49:23;;;;;;;19.58;15.18;;;;;;;0.28;84.12;100507.28;2544002;28;20075;-80
2023/12/28 00:50:38;;;;;;;20.10;13.98;;;;;;;0.35;84.41;100500.66;2534771;28;20308;-79
2023/12/28 00:51:53;;;;;;;17.52;13.07;;;;;;;0.37;84.09;100507.56;2535875;28;20041;-78
2023/12/28 00:53:07;;;;;;;15.75;12.75;;;;;;;0.37;83.94;100497.31;2528352;28;20391;-79
2023/12/28 00:54:20;;;;;;;21.90;14.43;;;;;;;0.34;83.89;100510.06;2533511;28;20048;-79
2023/12/28 00:55:35;;;;;;;19.90;12.77;;;;;;;0.35;83.91;100498.09;2535455;28;20307;-80
2023/12/28 00:56:48;;;;;;;17.17;13.05;;;;;;;0.33;83.91;100516.00;2535839;28;20049;-81
2023/12/28 00:58:03;;;;;;;17.30;12.40;;;;;;;0.32;83.84;100511.69;2528941;28;20080;-78
2023/12/28 00:59:16;;;;;;;15.23;11.30;;;;;;;0.29;83.86;100510.75;2526261;28;20712;-79
2023/12/28 01:00:31;;;;;;;16.40;11.38;;;;;;;0.25;83.77;100514.03;2535918;28;20049;-80
2023/12/28 01:01:44;;;;;;;16.58;11.15;;;;;;;0.19;83.80;100509.59;2535580;28;20052;-80
2023/12/28 01:02:58;;;;;;;15.10;10.23;;;;;;;0.16;83.87;100512.06;2535409;28;20311;-78
2023/12/28 01:04:12;;;;;;;12.50;10.73;;;;;;;0.09;83.90;100505.00;2535445;28;20049;-81
2023/12/28 01:05:28;;;;;;;16.42;12.27;;;;;;;0.03;83.73;100504.78;2535835;28;20687;-79
2023/12/28 01:06:41;;;;;;;17.73;12.38;;;;;;;-0.07;83.57;100504.50;2534766;28;20102;-81
2023/12/28 01:07:57;;;;;;;14.60;10.05;;;;;;;-0.12;83.42;100502.63;2536187;28;20307;-80
2023/12/28 01:09:10;;;;;;;13.18;10.70;;;;;;;-0.17;83.67;100510.16;2535867;28;20064;-80
2023/12/28 01:10:25;;;;;;;16.20;11.10;;;;;;;-0.19;83.55;100508.38;2534731;28;20277;-80
2023/12/28 01:11:38;;;;;;;16.13;11.63;;;;;;;-0.22;83.98;100509.13;2532583;28;20057;-80
2023/12/28 01:12:53;;;;;;;15.07;10.05;;;;;;;-0.26;83.49;100517.53;2530417;28;20312;-79
2023/12/28 01:14:06;;;;;;;13.18;10.48;;;;;;;-0.29;83.76;100512.31;2535491;28;20046;-80
2023/12/28 01:15:20;;;;;;;13.73;9.75;;;;;;;-0.32;83.70;100510.53;2535322;28;20304;-80
2023/12/28 01:16:35;;;;;;;13.98;9.90;;;;;;;-0.35;83.42;100517.25;2535125;28;20052;-79
2023/12/28 01:17:49;;;;;;;14.18;11.68;;;;;;;-0.39;83.56;100521.38;2535288;28;20365;-79
2023/12/28 01:19:03;;;;;;;14.95;10.27;;;;;;;-0.41;83.76;100519.59;2535793;28;20296;-79
2023/12/28 01:20:17;;;;;;;14.70;10.98;;;;;;;-0.42;83.69;100530.69;2544285;28;20310;-79
2023/12/28 01:21:31;;;;;;;13.45;10.05;;;;;;;-0.44;83.90;100530.63;2536995;28;20072;-79
2023/12/28 01:22:45;;;;;;;15.98;10.80;;;;;;;-0.44;83.50;100520.34;2532725;28;20289;-82
2023/12/28 01:24:00;;;;;;;16.77;10.52;;;;;;;-0.43;83.69;100513.56;2525797;28;20042;-78
2023/12/28 01:25:14;;;;;;;21.52;10.13;;;;;;;-0.42;83.93;100523.84;2533760;28;20801;-82
2023/12/28 01:26:28;;;;;;;17.98;10.93;;;;;;;-0.41;83.88;100529.84;2526948;28;20304;-81
2023/12/28 01:27:42;;;;;;;16.17;11.45;;;;;;;-0.39;83.95;100517.97;2532658;28;20806;-79
2023/12/28 01:28:56;;;;;;;15.43;11.38;;;;;;;-0.38;83.83;100523.16;2525454;28;20049;-81
2023/12/28 01:30:11;;;;;;;15.13;11.38;;;;;;;-0.33;84.09;100523.31;2532531;28;20280;-82
2023/12/28 01:31:24;;;;;;;15.32;10.20;;;;;;;-0.28;84.28;100520.06;2527949;28;20293;-81
2023/12/28 01:32:39;;;;;;;13.95;10.68;;;;;;;-0.23;84.16;100521.09;2532449;28;20696;-79
2023/12/28 01:33:52;;;;;;;16.00;10.85;;;;;;;-0.16;84.24;100519.59;2529372;28;20045;-80
2023/12/28 01:35:07;;;;;;;18.08;12.95;;;;;;;-0.09;84.66;100524.09;2541712;28;20330;-78
2023/12/28 01:36:22;;;;;;;15.13;11.80;;;;;;;-0.02;84.36;100530.31;2545931;28;20083;-81
2023/12/28 01:37:36;;;;;;;14.30;10.63;;;;;;;0.04;84.48;100522.78;2533603;28;20308;-80
2023/12/28 01:38:49;;;;;;;15.50;11.18;;;;;;;0.09;84.30;100531.50;2530077;28;20295;-79
2023/12/28 01:40:07;;;;;;;15.05;11.40;;;;;;;0.15;84.29;100533.41;2535903;28;20304;-80
2023/12/28 01:41:20;;;;;;;15.57;10.90;;;;;;;0.19;84.41;100527.53;2528150;28;20054;-80
2023/12/28 01:42:35;;;;;;;14.93;10.98;;;;;;;0.22;84.37;100528.50;2535254;28;20056;-80
2023/12/28 01:43:48;;;;;;;13.90;10.55;;;;;;;0.26;84.19;100526.91;2535870;28;20045;-79
2023/12/28 01:45:03;;;;;;;19.95;10.93;;;;;;;0.29;84.40;100529.56;2535269;28;20327;-81
2023/12/28 01:46:19;;;;;;;12.13;10.38;;;;;;;0.31;84.26;100527.03;2535020;28;20045;-82
2023/12/28 01:47:33;;;;;;;15.68;10.85;;;;;;;0.31;84.05;100538.19;2543019;28;20311;-82
2023/12/28 01:48:49;;;;;;;13.65;9.75;;;;;;;0.33;84.15;100530.53;2529938;28;20300;-82
2023/12/28 01:50:04;;;;;;;12.57;11.23;;;;;;;0.34;83.93;100533.16;2538406;28;20152;-82
2023/12/28 01:51:19;;;;;;;15.50;10.98;;;;;;;0.35;84.01;100534.03;2537507;28;20304;-81
2023/12/28 01:52:33;;;;;;;19.90;16.45;;;;;;;0.35;83.87;100539.16;2534712;28;20307;-82
2023/12/28 01:53:48;;;;;;;22.98;17.65;;;;;;;0.35;83.99;100540.03;2531928;28;20811;-79
2023/12/28 01:55:03;;;;;;;16.38;12.70;;;;;;;0.36;83.80;100535.75;2536074;28;20307;-82
2023/12/28 01:56:19;;;;;;;20.95;14.13;;;;;;;0.38;83.89;100539.25;2535859;28;20311;-82
2023/12/28 01:57:33;;;;;;;16.88;9.60;;;;;;;0.40;84.08;100542.75;2527898;28;20550;-82
2023/12/28 01:58:49;;;;;;;13.88;9.98;;;;;;;0.43;83.98;100545.41;2531341;28;20285;-79
2023/12/28 02:00:04;;;;;;;12.80;8.82;;;;;;;0.45;84.15;100545.44;2531660;28;20476;-79
2023/12/28 02:01:18;;;;;;;16.55;10.75;;;;;;;0.49;84.06;100537.91;2535190;28;20050;-81
2023/12/28 02:02:33;;;;;;;13.80;10.10;;;;;;;0.55;84.13;100544.91;2535843;28;20517;-79
2023/12/28 02:03:46;;;;;;;28.63;18.67;;;;;;;0.63;84.21;100544.31;2532038;28;20046;-79
2023/12/28 02:05:01;;;;;;;28.55;20.88;;;;;;;0.75;84.31;100548.94;2526551;28;20673;-80
2023/12/28 02:06:16;;;;;;;18.15;11.02;;;;;;;0.84;84.22;100532.91;2533263;28;20064;-80
2023/12/28 02:07:30;;;;;;;12.13;8.65;;;;;;;0.95;84.21;100538.34;2536848;28;20046;-82
2023/12/28 02:08:43;;;;;;;9.40;8.32;;;;;;;1.10;84.43;100533.66;2533270;28;20057;-82
2023/12/28 02:09:58;;;;;;;11.30;9.15;;;;;;;1.25;84.47;100531.50;2526684;28;20133;-80
2023/12/28 02:11:11;;;;;;;16.63;9.68;;;;;;;1.42;84.51;100534.53;2526662;28;20050;-80
2023/12/28 02:12:27;;;;;;;15.02;11.00;;;;;;;1.59;84.36;100529.81;2526745;28;20054;-81
2023/12/28 02:13:41;;;;;;;15.38;9.43;;;;;;;1.86;84.53;100539.94;2525007;28;20430;-79
2023/12/28 02:14:55;;;;;;;18.42;10.55;;;;;;;2.11;84.43;100536.25;2530167;28;20030;-82
2023/12/28 02:16:13;;;;;;;26.10;17.00;;;;;;;2.29;84.13;100527.22;2543457;28;20045;-81
2023/12/28 02:17:30;;;;;;;9.13;6.15;;;;;;;2.43;83.88;100528.41;2538425;28;20407;-80
2023/12/28 02:18:44;;;;;;;21.30;15.73;;;;;;;2.68;83.83;100528.94;2539952;28;20041;-82
2023/12/28 02:19:59;;;;;;;9.18;7.10;;;;;;;2.82;83.48;100533.56;2532074;28;20058;-79
2023/12/28 02:21:13;;;;;;;8.95;6.50;;;;;;;2.95;83.27;100534.66;2540297;28;20053;-80
2023/12/28 02:22:28;;;;;;;14.63;13.13;;;;;;;3.19;83.04;100533.41;2536807;28;20045;-82
2023/12/28 02:23:46;;;;;;;9.40;8.27;;;;;;;3.42;82.51;100534.72;2535440;28;20050;-79
2023/12/28 02:25:07;;;;;;;10.38;4.78;;;;;;;3.64;81.90;100530.81;2535604;28;20103;-78
2023/12/28 02:26:21;;;;;;;7.85;5.53;;;;;;;3.87;81.08;100525.16;2541741;28;20060;-79
2023/12/28 02:27:36;;;;;;;6.53;4.95;;;;;;;4.05;80.26;100525.50;2535059;28;20136;-81
2023/12/28 02:28:50;;;;;;;5.57;4.35;;;;;;;4.21;79.58;100525.69;2535393;28;20049;-82
2023/12/28 02:30:06;;;;;;;9.63;8.73;;;;;;;4.34;78.89;100533.69;2534545;28;20433;-80
2023/12/28 02:31:21;;;;;;;10.77;8.32;;;;;;;4.45;78.08;100526.06;2535594;28;20056;-82
2023/12/28 02:32:54;;;;;;;6.32;4.78;;;;;;;4.62;77.64;100526.31;2535371;28;20045;-82
2023/12/28 02:34:13;;;;;;;8.60;6.97;;;;;;;4.77;76.25;100521.31;2534757;28;20045;-81
2023/12/28 02:35:30;;;;;;;6.00;4.88;;;;;;;4.95;75.69;100528.44;2534934;28;20461;-80
2023/12/28 02:36:45;;;;;;;8.75;5.53;;;;;;;5.11;74.63;100526.94;2528659;28;20033;-81
2023/12/28 02:38:03;;;;;;;9.65;6.95;;;;;;;5.23;73.82;100521.88;2534294;28;20128;-81
2023/12/28 02:39:16;;;;;;;8.07;7.28;;;;;;;5.36;73.12;100522.03;2535334;28;20088;-81
2023/12/28 02:40:36;;;;;;;9.68;8.52;;;;;;;5.42;72.46;100512.63;2544309;28;20436;-81
2023/12/28 02:41:50;;;;;;;9.82;6.85;;;;;;;5.53;71.73;100514.44;2541105;28;20045;-82
2023/12/28 02:43:04;;;;;;;4.00;3.60;;;;;;;5.61;71.10;100510.19;2534949;28;20080;-79
2023/12/28 02:44:18;;;;;;;14.27;10.10;;;;;;;5.67;70.39;100518.00;2535303;28;20494;-81
2023/12/28 02:45:33;;;;;;;10.23;8.77;;;;;;;5.74;70.02;100511.19;2525731;28;20050;-80
2023/12/28 02:46:46;;;;;;;4.55;3.92;;;;;;;5.83;69.27;100516.41;2527856;28;20044;-80
2023/12/28 02:48:00;;;;;;;6.10;4.05;;;;;;;5.93;68.29;100512.19;2540124;28;20045;-81
2023/12/28 02:49:15;;;;;;;7.78;5.30;;;;;;;6.00;67.91;100514.00;2535380;28;20503;-80
2023/12/28 02:50:30;;;;;;;7.78;5.88;;;;;;;6.05;67.48;100517.50;2535309;28;20049;-82
2023/12/28 02:51:44;;;;;;;6.85;6.15;;;;;;;6.13;66.69;100517.56;2538391;28;20056;-81
2023/12/28 02:52:59;;;;;;;5.65;4.40;;;;;;;6.23;66.30;100511.59;2540407;28;20045;-80
2023/12/28 02:54:12;;;;;;;5.38;4.30;;;;;;;6.28;65.73;100505.59;2541546;28;20045;-81
2023/12/28 02:55:26;;;;;;;4.32;3.92;;;;;;;6.35;65.22;100506.50;2537021;28;20475;-79
2023/12/28 02:56:41;;;;;;;3.53;3.20;;;;;;;6.45;64.73;100513.44;2541270;28;20421;-81
2023/12/28 02:57:59;;;;;;;3.88;3.53;;;;;;;6.57;63.68;100511.81;2528918;28;20482;-81
2023/12/28 02:59:12;;;;;;;3.42;2.92;;;;;;;6.70;62.82;100514.47;2535621;28;20053;-81
2023/12/28 03:00:26;;;;;;;3.97;3.15;;;;;;;6.80;62.46;100515.38;2535309;28;20052;-78
2023/12/28 03:01:40;;;;;;;5.30;2.85;;;;;;;6.90;61.98;100511.97;2534973;28;20053;-81
2023/12/28 03:02:54;;;;;;;5.03;3.50;;;;;;;6.99;61.06;100516.31;2535527;28;20041;-80
2023/12/28 03:04:09;;;;;;;3.63;2.67;;;;;;;7.12;60.40;100517.22;2528723;28;20057;-80
2023/12/28 03:05:23;;;;;;;3.75;3.25;;;;;;;7.24;60.13;100501.69;2533248;28;20534;-81
2023/12/28 03:06:38;;;;;;;4.07;2.88;;;;;;;7.33;59.35;100508.63;2526067;28;20045;-81
2023/12/28 03:07:52;;;;;;;4.80;3.08;;;;;;;7.42;58.80;100506.91;2535374;28;20103;-81
2023/12/28 03:09:06;;;;;;;4.97;2.85;;;;;;;7.53;58.40;100504.34;2540710;28;20117;-78
2023/12/28 03:10:20;;;;;;;4.43;2.50;;;;;;;7.61;58.08;100505.22;2530838;28;20045;-80
2023/12/28 03:11:33;;;;;;;3.55;2.83;;;;;;;7.69;57.25;100505.22;2533498;28;20053;-81
2023/12/28 03:12:49;;;;;;;4.60;3.17;;;;;;;7.82;57.48;100514.78;2528479;28;20406;-81
2023/12/28 03:14:03;;;;;;;3.30;3.00;;;;;;;7.89;56.79;100506.97;2534421;28;20045;-81
2023/12/28 03:15:17;;;;;;;2.58;2.17;;;;;;;7.96;56.48;100511.31;2527910;28;20050;-80
2023/12/28 03:16:31;;;;;;;3.35;2.03;;;;;;;8.04;56.39;100514.75;2534308;28;20521;-81
2023/12/28 03:17:45;;;;;;;3.42;2.50;;;;;;;8.11;56.21;100508.69;2534808;28;20049;-79
2023/12/28 03:18:59;;;;;;;4.28;3.63;;;;;;;8.14;56.07;100500.91;2539796;28;20048;-80
2023/12/28 03:20:13;;;;;;;3.28;2.65;;;;;;;8.19;55.49;100506.97;2538729;28;20064;-80
2023/12/28 03:21:26;;;;;;;6.43;2.70;;;;;;;8.24;55.69;100507.81;2543155;28;20060;-80
2023/12/28 03:22:41;;;;;;;4.10;2.38;;;;;;;8.27;55.47;100506.94;2526661;28;20477;-79
2023/12/28 03:23:55;;;;;;;3.03;2.47;;;;;;;8.26;55.63;100502.59;2534473;28;20042;-79
2023/12/28 03:25:09;;;;;;;4.05;2.30;;;;;;;8.27;55.65;100502.59;2534327;28;20049;-80
2023/12/28 03:26:22;;;;;;;3.10;2.80;;;;;;;8.29;55.50;100500.88;2541651;28;20463;-80
2023/12/28 03:27:37;;;;;;;3.45;3.15;;;;;;;8.28;55.71;100500.88;2535091;28;20133;-81
2023/12/28 03:28:52;;;;;;;3.88;2.20;;;;;;;8.24;56.17;100504.34;2535568;28;20045;-80
2023/12/28 03:30:07;;;;;;;2.70;2.35;;;;;;;8.19;56.42;100513.91;2535165;28;20041;-80
2023/12/28 03:31:21;;;;;;;3.88;2.88;;;;;;;8.14;56.77;100513.91;2535675;28;20422;-79
2023/12/28 03:32:35;;;;;;;3.85;2.45;;;;;;;8.09;56.96;100516.50;2536284;28;20049;-79
2023/12/28 03:33:48;;;;;;;3.05;2.33;;;;;;;8.08;57.14;100508.72;2541206;28;20052;-81
2023/12/28 03:35:04;;;;;;;3.53;2.10;;;;;;;8.10;57.07;100512.16;2534673;28;20077;-81
2023/12/28 03:36:18;;;;;;;2.60;2.13;;;;;;;8.14;56.86;100507.84;2535165;28;20049;-80
2023/12/28 03:37:32;;;;;;;2.40;2.00;;;;;;;8.20;56.50;100513.88;2533627;28;20056;-80
2023/12/28 03:38:46;;;;;;;3.30;2.33;;;;;;;8.23;56.34;100519.06;2524608;28;20061;-80
2023/12/28 03:40:00;;;;;;;3.65;2.88;;;;;;;8.23;56.48;100524.25;2524611;28;20046;-80
2023/12/28 03:41:17;;;;;;;2.83;2.25;;;;;;;8.21;56.77;100526.03;2531019;28;20053;-79
2023/12/28 03:42:32;;;;;;;3.85;2.72;;;;;;;8.18;56.81;100526.00;2533889;28;20091;-80
2023/12/28 03:43:45;;;;;;;2.85;2.55;;;;;;;8.13;57.44;100525.16;2532550;28;20068;-79
2023/12/28 03:45:01;;;;;;;3.83;2.92;;;;;;;8.09;57.91;100526.03;2525289;28;20056;-78
2023/12/28 03:46:14;;;;;;;3.95;3.33;;;;;;;8.04;57.79;100517.38;2531441;28;20052;-80
2023/12/28 03:47:29;;;;;;;3.53;2.85;;;;;;;8.02;57.94;100519.94;2535718;28;20414;-83
2023/12/28 03:48:42;;;;;;;4.20;3.25;;;;;;;8.06;57.74;100520.84;2535627;28;20060;-80
2023/12/28 03:49:57;;;;;;;3.40;2.45;;;;;;;8.07;57.41;100522.56;2531324;28;20052;-80
2023/12/28 03:51:13;;;;;;;2.92;2.67;;;;;;;8.09;57.22;100526.03;2531645;28;20053;-78
2023/12/28 03:52:29;;;;;;;4.65;3.17;;;;;;;8.09;57.27;100526.88;2526674;28;20054;-78
2023/12/28 03:53:43;;;;;;;3.92;3.00;;;;;;;8.09;57.34;100531.22;2528179;28;20416;-78
2023/12/28 03:54:57;;;;;;;3.60;3.13;;;;;;;8.05;57.60;100519.97;2530777;28;20052;-80
2023/12/28 03:56:19;;;;;;;3.38;2.95;;;;;;;8.03;57.90;100523.44;2531228;28;20053;-77
2023/12/28 03:57:33;;;;;;;5.32;3.17;;;;;;;7.98;58.17;100527.78;2535179;28;20073;-78
2023/12/28 03:58:46;;;;;;;4.22;3.72;;;;;;;7.94;58.58;100526.03;2533209;28;20044;-78
2023/12/28 04:00:02;;;;;;;5.07;4.05;;;;;;;7.92;58.57;100527.75;2525370;28;20065;-80
2023/12/28 04:01:17;;;;;;;7.05;3.33;;;;;;;7.89;58.92;100532.97;2538649;28;20466;-80
2023/12/28 04:02:31;;;;;;;4.85;3.05;;;;;;;7.85;58.95;100530.34;2535679;28;20132;-79
2023/12/28 04:03:45;;;;;;;6.60;2.63;;;;;;;7.83;59.19;100529.50;2535545;28;20053;-77
2023/12/28 04:05:00;;;;;;;2.72;2.53;;;;;;;7.84;59.37;100543.34;2535341;28;20071;-79
2023/12/28 04:06:14;;;;;;;3.17;2.45;;;;;;;7.82;59.84;100537.25;2540866;28;20053;-80
2023/12/28 04:07:28;;;;;;;4.43;2.47;;;;;;;7.83;59.73;100542.47;2529027;28;20438;-79
2023/12/28 04:08:42;;;;;;;3.40;2.22;;;;;;;7.83;59.92;100542.47;2527344;28;20088;-79
2023/12/28 04:09:58;;;;;;;2.88;2.63;;;;;;;7.85;60.09;100547.69;2531598;28;20499;-80
2023/12/28 04:11:11;;;;;;;3.78;3.45;;;;;;;7.86;60.05;100552.88;2531662;28;20079;-79
2023/12/28 04:12:28;;;;;;;4.38;2.95;;;;;;;7.91;60.40;100546.81;2528114;28;20045;-81
2023/12/28 04:13:41;;;;;;;3.58;2.20;;;;;;;7.93;60.17;100539.91;2533419;28;20487;-82
2023/12/28 04:14:55;;;;;;;3.55;2.28;;;;;;;7.98;60.13;100552.03;2525551;28;20105;-83
2023/12/28 04:16:13;;;;;;;3.33;2.20;;;;;;;8.02;60.20;100550.28;2525626;28;20061;-82
2023/12/28 04:17:27;;;;;;;2.72;1.85;;;;;;;8.03;59.97;100552.91;2525313;28;20049;-79
2023/12/28 04:18:41;;;;;;;2.42;2.20;;;;;;;8.03;60.33;100547.69;2526324;28;20052;-82
2023/12/28 04:19:55;;;;;;;4.68;2.80;;;;;;;8.05;60.82;100545.97;2535228;28;20449;-83
2023/12/28 04:21:09;;;;;;;3.72;2.17;;;;;;;8.07;60.43;100544.22;2541071;28;20054;-80
2023/12/28 04:22:24;;;;;;;5.55;1.90;;;;;;;8.07;60.51;100544.22;2544863;28;20064;-80
2023/12/28 04:23:38;;;;;;;4.03;2.05;;;;;;;8.10;60.40;100540.75;2535460;28;20053;-81
2023/12/28 04:24:52;;;;;;;2.28;2.08;;;;;;;8.11;60.18;100539.91;2534753;28;20191;-78
2023/12/28 04:26:06;;;;;;;3.20;2.30;;;;;;;8.14;60.04;100533.84;2535092;28;20053;-81
2023/12/28 04:27:20;;;;;;;3.63;2.08;;;;;;;8.17;59.87;100539.03;2535440;28;20045;-83
2023/12/28 04:28:34;;;;;;;2.90;2.47;;;;;;;8.19;59.78;100538.16;2535634;28;20457;-81
2023/12/28 04:29:48;;;;;;;4.10;2.30;;;;;;;8.23;59.64;100546.81;2534286;28;20050;-82
2023/12/28 04:31:03;;;;;;;3.70;2.60;;;;;;;8.27;59.66;100548.53;2534860;28;20054;-81
2023/12/28 04:32:19;;;;;;;3.83;2.38;;;;;;;8.31;59.30;100552.84;2535296;28;20053;-82
2023/12/28 04:33:32;;;;;;;3.88;3.28;;;;;;;8.33;59.58;100551.13;2527609;28;20053;-83
2023/12/28 04:34:47;;;;;;;2.85;2.10;;;;;;;8.33;59.43;100550.28;2535419;28;20045;-82
2023/12/28 04:36:00;;;;;;;3.38;2.13;;;;;;;8.35;59.31;100553.75;2531174;28;20053;-82
2023/12/28 04:37:15;;;;;;;2.78;2.50;;;;;;;8.37;59.20;100559.81;2530093;28;20049;-80
2023/12/28 04:38:28;;;;;;;3.92;2.53;;;;;;;8.36;59.40;100556.31;2534249;28;20045;-82
2023/12/28 04:39:43;;;;;;;2.40;1.85;;;;;;;8.36;59.31;100564.13;2534392;28;20045;-82
2023/12/28 04:40:56;;;;;;;4.22;2.13;;;;;;;8.36;59.48;100556.31;2535438;28;20046;-81
2023/12/28 04:42:10;;;;;;;4.45;2.60;;;;;;;8.37;59.63;100565.00;2534577;28;20049;-83
2023/12/28 04:43:24;;;;;;;5.50;2.28;;;;;;;8.37;59.71;100552.00;2535143;28;20064;-81
2023/12/28 04:44:39;;;;;;;2.22;2.03;;;;;;;8.37;59.94;100557.22;2526959;28;20071;-81
2023/12/28 04:45:52;;;;;;;3.42;1.83;;;;;;;8.35;60.59;100556.34;2535902;28;20041;-81
2023/12/28 04:47:07;;;;;;;3.35;3.03;;;;;;;8.33;61.09;100555.47;2535197;28;20041;-82
2023/12/28 04:48:23;;;;;;;3.10;2.25;;;;;;;8.27;61.28;100565.00;2535888;28;20060;-80
2023/12/28 04:49:38;;;;;;;5.30;2.85;;;;;;;8.25;61.95;100571.94;2534089;28;20049;-81
2023/12/28 04:50:52;;;;;;;3.63;2.42;;;;;;;8.21;62.35;100564.13;2528096;28;20046;-82
2023/12/28 04:52:06;;;;;;;3.92;3.33;;;;;;;8.16;63.04;100565.88;2535664;28;20136;-80
2023/12/28 04:53:20;;;;;;;5.10;3.95;;;;;;;8.11;63.48;100565.88;2535255;28;20064;-82
2023/12/28 04:54:34;;;;;;;4.43;2.28;;;;;;;8.06;63.94;100580.63;2527220;28;20072;-81
2023/12/28 04:55:48;;;;;;;3.17;2.20;;;;;;;8.00;64.09;100578.00;2533303;28;20136;-82
2023/12/28 04:57:03;;;;;;;3.05;2.22;;;;;;;7.93;64.46;100574.53;2525727;28;20050;-81
2023/12/28 04:58:16;;;;;;;4.60;2.58;;;;;;;7.89;64.97;100567.59;2526354;28;20503;-82
2023/12/28 04:59:30;;;;;;;3.47;2.17;;;;;;;7.82;65.18;100558.94;2535251;28;20045;-82
2023/12/28 05:00:44;;;;;;;3.25;2.17;;;;;;;7.76;65.60;100555.47;2528739;28;20077;-82
2023/12/28 05:01:58;;;;;;;3.47;2.30;;;;;;;7.72;65.83;100554.59;2538980;28;20052;-82
2023/12/28 05:03:12;;;;;;;4.70;2.72;;;;;;;7.67;66.37;100551.13;2533620;28;20053;-82
2023/12/28 05:04:27;;;;;;;5.28;3.25;;;;;;;7.63;66.85;100552.84;2524910;28;20046;-81
2023/12/28 05:05:41;;;;;;;3.90;2.78;;;;;;;7.58;67.27;100556.28;2533173;28;20057;-81
2023/12/28 05:06:55;;;;;;;4.38;2.58;;;;;;;7.53;67.62;100565.81;2526271;28;20061;-80
2023/12/28 05:08:09;;;;;;;5.22;2.35;;;;;;;7.49;68.32;100553.69;2533154;28;20053;-80
2023/12/28 05:09:23;;;;;;;5.07;2.65;;;;;;;7.42;68.86;100563.19;2529640;28;20068;-82
2023/12/28 05:10:37;;;;;;;3.25;2.03;;;;;;;7.35;69.21;100557.09;2533646;28;20059;-82
2023/12/28 05:11:51;;;;;;;5.13;2.72;;;;;;;7.30;69.52;100551.03;2526311;28;20057;-81
2023/12/28 05:13:05;;;;;;;3.53;2.83;;;;;;;7.27;70.03;100548.41;2531115;28;20050;-80
2023/12/28 05:14:19;;;;;;;3.67;2.55;;;;;;;7.23;70.33;100549.28;2528263;28;20659;-80
2023/12/28 05:15:33;;;;;;;3.40;2.88;;;;;;;7.19;70.70;100550.13;2534174;28;20042;-81
2023/12/28 05:16:46;;;;;;;3.75;2.92;;;;;;;7.15;70.83;100548.38;2534725;28;20052;-81
2023/12/28 05:18:01;;;;;;;5.13;2.72;;;;;;;7.11;71.32;100557.88;2531091;28;20060;-82
2023/12/28 05:19:15;;;;;;;3.47;2.80;;;;;;;7.08;71.64;100547.50;2530385;28;20056;-82
2023/12/28 05:20:30;;;;;;;4.18;2.50;;;;;;;7.05;71.62;100562.16;2527703;28;20061;-82
2023/12/28 05:21:44;;;;;;;6.38;2.50;;;;;;;7.02;72.05;100560.44;2534711;28;20494;-80
2023/12/28 05:22:58;;;;;;;5.53;3.10;;;;;;;7.00;72.38;100559.56;2535868;28;20049;-81
2023/12/28 05:24:12;;;;;;;4.28;3.03;;;;;;;6.96;72.64;100563.88;2535365;28;20053;-82
2023/12/28 05:25:26;;;;;;;6.78;4.68;;;;;;;6.93;72.79;100569.03;2543112;28;20470;-80
2023/12/28 05:26:40;;;;;;;3.97;3.33;;;;;;;6.90;73.07;100573.38;2542407;28;20407;-81
2023/12/28 05:27:54;;;;;;;4.30;3.22;;;;;;;6.88;73.19;100572.47;2528383;28;20078;-82
2023/12/28 05:29:08;;;;;;;16.88;4.28;;;;;;;6.86;73.72;100581.97;2530219;28;20072;-82
2023/12/28 05:30:22;;;;;;;5.53;3.03;;;;;;;6.85;74.07;100575.06;2540255;28;20073;-81
2023/12/28 05:31:36;;;;;;;3.92;2.80;;;;;;;6.85;74.20;100577.66;2529742;28;20466;-79
2023/12/28 05:32:50;;;;;;;4.68;3.33;;;;;;;6.83;74.60;100577.63;2539818;28;20057;-81
2023/12/28 05:34:05;;;;;;;4.97;2.80;;;;;;;6.83;74.60;100572.44;2538051;28;20045;-80
2023/12/28 05:35:19;;;;;;;5.57;3.47;;;;;;;6.84;74.74;100582.00;2533498;28;20123;-82
2023/12/28 05:36:34;;;;;;;3.90;2.90;;;;;;;6.83;74.98;100582.81;2536486;28;20052;-81
2023/12/28 05:37:48;;;;;;;4.43;3.05;;;;;;;6.83;74.94;100581.97;2534155;28;20076;-79
2023/12/28 05:39:02;;;;;;;8.60;2.58;;;;;;;6.83;75.38;100589.75;2527277;28;20517;-81
2023/12/28 05:40:16;;;;;;;11.30;4.20;;;;;;;6.83;75.45;100582.81;2526743;28;20050;-82
2023/12/28 05:41:30;;;;;;;4.15;2.75;;;;;;;6.83;75.39;100576.78;2535258;28;20060;-81
2023/12/28 05:42:44;;;;;;;5.47;3.05;;;;;;;6.82;75.78;100581.09;2536665;28;20057;-82
2023/12/28 05:43:58;;;;;;;4.75;4.00;;;;;;;6.83;75.76;100581.97;2536816;28;20049;-80
2023/12/28 05:45:12;;;;;;;4.15;2.60;;;;;;;6.83;75.94;100587.16;2536794;28;20050;-80
2023/12/28 05:46:26;;;;;;;3.65;2.45;;;;;;;6.83;75.96;100584.56;2536971;28;20045;-80